Spokane, Louisiana
Current Conditions -  °F | °C
As of 3:55 PM on Monday 24 Nov 2014 (Local Time) from KHEZ Reporting Station
Clear Clear  
Wind Chill: 59°   Ceiling: Unl
Heat Index: 59°   Visibility: 10mi
Dew Point: 34°   Wind: 9mph
Humidity: 39%   Direction: 320°NW
Pressure: 30"   Gusts: NA
Location:  31.6488°N, 91.6098°W
Report Text: KHEZ 242155Z AUTO 32008KT 10SM CLR 15/01 A3000 RMK AO1
Loading
Personal Weather Stations






























Interactive Weather Map New forecast layout! Learn more

10-Day Weather Forecast

Advertisements
Track Severe Weather on mobile